首页
METAR-TAF:

METAR-TAF

机场 :

索菲亞, 保加利亚

索菲亞機場

纬度: 42-39N, 经度: 023-23E, 海拔: 586米

当前天气观测

该预报发布于8分钟前的01:30 UTC
风速5节,风向西转西南
温度 -3°C
湿度 74%
气压 1012 hPa
能见度10公里或以上
1500米以下无云,无积雨云

METAR: LBSF 190130Z 24005KT CAVOK M03/M07 Q1012 NOSIG

时间: 03:38 (01:38 UTC)

预报

该预报发布于2小时和38分钟前的23:00 UTC
预报有效从19日的 00点(UTC)到 19日的 24点(UTC)
风速10节,风向西转西北
能见度10公里或以上
1500米以下无云,无积雨云
几率 30% :
短暂存在
从 19日的 03点(UTC)到 19日的 07点(UTC)
风速4节,风向多变
能見度: 5000
轻雾
成为
从 19日的 17点(UTC)到 19日的 19点(UTC)
风速10节,风向
散云层高于4000英尺
多云层高于6000英尺

TAF: LBSF 182300Z 1900/1924 30010KT CAVOK PROB30 TEMPO 1903/1907 VRB04KT 5000 BR NSC BECMG 1917/1919 09010KT SCT040 BKN060

超过4000个机场的气象观测和天气预报(METAR&TAF报告)。

可查询的气象台以黄色和红色小点在地图上表示。

将鼠标移到小点上方,可查看气象台名称。

然后点击查看天气观测和预报。

如需切换地图:点击带黑十字的绿色按钮放大地图;点击带横线的绿色按钮缩小地图;或者点击绿色箭头查看邻近地区的地图。


METAR-TAF: